createdAt,value
2018-06-24T00:02:19.262Z,9.00
2018-06-24T00:04:47.646Z,8.27
2018-06-24T00:07:16.020Z,10.07
2018-06-24T00:09:44.542Z,9.47
2018-06-24T00:12:12.904Z,9.30
2018-06-24T00:14:41.272Z,9.53
2018-06-24T00:17:09.813Z,8.70
2018-06-24T00:19:38.175Z,8.10
2018-06-24T00:22:06.592Z,9.77
2018-06-24T00:24:34.966Z,8.43
2018-06-24T00:27:03.343Z,7.30
2018-06-24T00:29:31.712Z,8.40
2018-06-24T00:32:00.089Z,8.07
2018-06-24T00:34:28.463Z,8.03
2018-06-24T00:36:56.847Z,8.20
2018-06-24T00:39:25.291Z,8.53
2018-06-24T00:41:53.660Z,8.30
2018-06-24T00:44:22.203Z,8.50
2018-06-24T00:46:50.555Z,8.47
2018-06-24T00:49:18.912Z,7.60
2018-06-24T00:51:47.293Z,8.43
2018-06-24T00:54:15.707Z,8.77
2018-06-24T00:56:44.094Z,8.27
2018-06-24T00:59:24.087Z,8.17
2018-06-24T01:01:52.639Z,8.40
2018-06-24T01:04:20.983Z,7.23
2018-06-24T01:06:49.337Z,7.83
2018-06-24T01:09:17.736Z,8.60
2018-06-24T01:11:46.087Z,7.60
2018-06-24T01:14:14.459Z,8.47
2018-06-24T01:16:42.834Z,6.50
2018-06-24T01:19:11.252Z,8.87
2018-06-24T01:21:39.666Z,8.63
2018-06-24T01:24:08.015Z,7.60
2018-06-24T01:26:36.358Z,7.33
2018-06-24T01:29:04.855Z,8.47
2018-06-24T01:31:33.208Z,7.10
2018-06-24T01:34:01.560Z,7.03
2018-06-24T01:36:29.979Z,7.10
2018-06-24T01:38:58.371Z,7.80
2018-06-24T01:41:26.735Z,7.73
2018-06-24T01:43:55.311Z,7.73
2018-06-24T01:46:23.758Z,7.47
2018-06-24T01:48:52.115Z,7.30
2018-06-24T01:51:20.494Z,7.43
2018-06-24T01:53:48.843Z,7.97
2018-06-24T01:56:17.199Z,6.77
2018-06-24T01:58:45.591Z,8.00
2018-06-24T02:01:13.935Z,7.27
2018-06-24T02:03:42.507Z,7.57
2018-06-24T02:06:10.862Z,7.50
2018-06-24T02:08:39.267Z,8.40
2018-06-24T02:11:07.648Z,8.23
2018-06-24T02:13:35.983Z,8.00
2018-06-24T02:16:04.343Z,6.70
2018-06-24T02:18:32.725Z,7.47
2018-06-24T02:21:01.054Z,7.17
2018-06-24T02:23:29.442Z,7.80
2018-06-24T02:25:57.758Z,7.43
2018-06-24T02:28:26.131Z,8.40
2018-06-24T02:30:54.453Z,7.60
2018-06-24T02:33:22.776Z,7.33
2018-06-24T02:35:51.144Z,7.90
2018-06-24T02:38:19.496Z,7.73
2018-06-24T02:40:47.871Z,8.07
2018-06-24T02:43:16.211Z,8.40
2018-06-24T02:45:44.608Z,8.63
2018-06-24T02:48:12.952Z,8.33
2018-06-24T02:50:41.293Z,8.00
2018-06-24T02:53:09.703Z,7.83
2018-06-24T02:55:38.030Z,8.60
2018-06-24T02:58:06.360Z,8.10
2018-06-24T03:00:34.739Z,7.07
2018-06-24T03:03:03.090Z,8.03
2018-06-24T03:05:31.424Z,7.47
2018-06-24T03:07:59.798Z,8.73
2018-06-24T03:10:28.132Z,8.43
2018-06-24T03:12:56.456Z,8.10
2018-06-24T03:15:24.826Z,8.40
2018-06-24T03:17:53.207Z,8.60
2018-06-24T03:20:21.546Z,8.20
2018-06-24T03:22:49.986Z,7.93
2018-06-24T03:25:18.327Z,9.80
2018-06-24T03:27:46.688Z,8.03
2018-06-24T03:30:15.057Z,9.90
2018-06-24T03:32:43.402Z,8.80
2018-06-24T03:35:11.763Z,8.10
2018-06-24T03:37:40.118Z,8.30
2018-06-24T03:40:08.452Z,9.13
2018-06-24T03:42:36.778Z,8.80
2018-06-24T03:45:05.542Z,8.17
2018-06-24T03:47:33.888Z,8.50
2018-06-24T03:50:02.242Z,8.40
2018-06-24T03:52:30.683Z,8.70
2018-06-24T03:54:59.055Z,8.10
2018-06-24T03:57:27.475Z,9.27
2018-06-24T03:59:55.882Z,8.43
2018-06-24T04:02:24.235Z,8.80
2018-06-24T04:04:52.623Z,8.70
2018-06-24T04:07:20.979Z,7.20
2018-06-24T04:09:49.402Z,8.37
2018-06-24T04:12:17.754Z,7.97
2018-06-24T04:14:46.683Z,7.83
2018-06-24T04:17:15.069Z,8.00
2018-06-24T04:19:43.422Z,8.07
2018-06-24T04:22:11.789Z,7.97
2018-06-24T04:24:40.183Z,8.60
2018-06-24T04:27:08.547Z,8.90
2018-06-24T04:29:36.938Z,8.80
2018-06-24T04:32:05.329Z,8.43
2018-06-24T04:34:33.788Z,9.63
2018-06-24T04:37:02.177Z,8.20
2018-06-24T04:39:30.587Z,7.20
2018-06-24T04:41:58.977Z,8.50
2018-06-24T04:44:27.382Z,8.30
2018-06-24T04:46:55.783Z,9.80
2018-06-24T04:49:24.111Z,9.10
2018-06-24T04:51:52.556Z,8.40
2018-06-24T04:54:20.947Z,8.07
2018-06-24T04:56:49.315Z,9.23
2018-06-24T04:59:17.866Z,8.83
2018-06-24T05:01:46.228Z,8.77
2018-06-24T05:04:14.593Z,8.63
2018-06-24T05:06:42.996Z,8.80
2018-06-24T05:09:11.419Z,9.00
2018-06-24T05:11:39.797Z,8.30
2018-06-24T05:14:08.187Z,8.80
2018-06-24T05:16:37.195Z,9.00
2018-06-24T05:19:05.603Z,9.43
2018-06-24T05:21:34.138Z,8.90
2018-06-24T05:24:02.513Z,7.67
2018-06-24T05:26:31.022Z,8.83
2018-06-24T05:28:59.407Z,9.30
2018-06-24T05:31:27.773Z,8.10
2018-06-24T05:33:56.356Z,8.70
2018-06-24T05:36:24.736Z,9.20
2018-06-24T05:38:53.104Z,7.80
2018-06-24T05:41:21.644Z,7.60
2018-06-24T05:43:51.092Z,8.90
2018-06-24T05:46:19.579Z,9.37
2018-06-24T05:48:47.980Z,8.40
2018-06-24T05:51:16.363Z,8.20
2018-06-24T05:53:44.718Z,8.00
2018-06-24T05:56:13.103Z,8.40
2018-06-24T05:58:41.459Z,9.63
2018-06-24T06:01:10.037Z,9.77
2018-06-24T06:03:38.408Z,8.97
2018-06-24T06:06:06.783Z,9.57
2018-06-24T06:08:35.180Z,9.30
2018-06-24T06:11:03.544Z,9.40
2018-06-24T06:13:31.935Z,10.03
2018-06-24T06:16:00.333Z,10.37
2018-06-24T06:18:28.743Z,11.90
2018-06-24T06:20:57.128Z,9.20
2018-06-24T06:23:25.504Z,9.27
2018-06-24T06:25:53.892Z,10.30
2018-06-24T06:28:22.241Z,9.17
2018-06-24T06:30:50.642Z,9.40
2018-06-24T06:33:19.179Z,8.03
2018-06-24T06:35:47.619Z,8.67
2018-06-24T06:38:15.987Z,9.00
2018-06-24T06:40:44.377Z,7.70
2018-06-24T06:43:12.728Z,9.87
2018-06-24T06:45:41.261Z,7.80
2018-06-24T06:48:09.522Z,7.07
2018-06-24T06:50:37.870Z,7.33
2018-06-24T06:53:06.367Z,6.70
2018-06-24T06:55:34.855Z,6.87
2018-06-24T06:58:03.232Z,5.20
2018-06-24T07:00:31.630Z,5.10
2018-06-24T07:03:00.018Z,5.20
2018-06-24T07:05:28.589Z,4.03
2018-06-24T07:07:56.983Z,4.40
2018-06-24T07:10:25.382Z,4.60
2018-06-24T07:12:53.772Z,5.87
2018-06-24T07:15:22.170Z,5.00
2018-06-24T07:17:50.539Z,6.10
2018-06-24T07:20:18.920Z,5.47
2018-06-24T07:22:47.252Z,4.80
2018-06-24T07:25:15.782Z,12.73
2018-06-24T07:27:44.158Z,6.00
2018-06-24T07:30:12.494Z,5.27
2018-06-24T07:32:40.903Z,4.53
2018-06-24T07:35:09.276Z,4.60
2018-06-24T07:37:37.671Z,4.40
2018-06-24T07:40:06.054Z,4.03
2018-06-24T07:42:34.578Z,3.80
2018-06-24T07:45:03.008Z,4.57
2018-06-24T07:47:31.367Z,3.93
2018-06-24T07:49:59.927Z,3.90
2018-06-24T07:52:28.390Z,3.90
2018-06-24T07:54:56.729Z,3.10
2018-06-24T07:57:25.264Z,4.23
2018-06-24T07:59:53.583Z,4.70
2018-06-24T08:02:21.894Z,4.53
2018-06-24T08:04:50.252Z,4.20
2018-06-24T08:07:18.585Z,4.40
2018-06-24T08:09:46.919Z,3.67
2018-06-24T08:12:15.282Z,4.90
2018-06-24T08:14:43.603Z,4.50
2018-06-24T08:17:12.159Z,4.70
2018-06-24T08:19:40.523Z,4.23
2018-06-24T08:22:08.858Z,5.00
2018-06-24T08:24:37.202Z,4.10
2018-06-24T08:27:05.820Z,4.97
2018-06-24T08:29:34.317Z,4.70
2018-06-24T08:32:02.758Z,4.90
2018-06-24T08:34:31.226Z,5.10
2018-06-24T08:36:59.634Z,6.23
2018-06-24T08:39:28.075Z,6.83
2018-06-24T08:41:56.452Z,6.47
2018-06-24T08:44:25.966Z,7.57
2018-06-24T08:46:54.302Z,7.37
2018-06-24T08:49:22.627Z,7.57
2018-06-24T08:51:51.072Z,7.87
2018-06-24T08:54:19.440Z,8.10
2018-06-24T08:56:47.828Z,6.33
2018-06-24T08:59:16.191Z,7.17
2018-06-24T09:01:44.562Z,8.43
2018-06-24T09:04:13.106Z,9.40
2018-06-24T09:06:41.463Z,8.87
2018-06-24T09:09:10.569Z,8.10
2018-06-24T09:11:39.118Z,9.13
2018-06-24T09:14:07.528Z,9.10
2018-06-24T09:16:35.902Z,8.40
2018-06-24T09:19:04.360Z,9.20
2018-06-24T09:21:32.792Z,9.50
2018-06-24T09:24:01.483Z,11.37
2018-06-24T09:26:29.879Z,11.13
2018-06-24T09:28:58.380Z,11.00
2018-06-24T09:31:26.870Z,10.30
2018-06-24T09:33:55.576Z,10.80
2018-06-24T09:36:23.961Z,11.80
2018-06-24T09:38:52.302Z,8.80
2018-06-24T09:41:20.861Z,10.73
2018-06-24T09:43:49.232Z,12.53
2018-06-24T09:46:17.609Z,17.37
2018-06-24T09:48:45.715Z,10.27
2018-06-24T09:51:14.066Z,9.60
2018-06-24T09:53:42.666Z,8.73
2018-06-24T09:56:10.975Z,11.20
2018-06-24T09:58:39.339Z,12.23
2018-06-24T10:01:07.783Z,11.07
2018-06-24T10:03:36.145Z,11.93
2018-06-24T10:06:04.475Z,22.90
2018-06-24T10:08:32.967Z,17.93
2018-06-24T10:11:01.370Z,13.23
2018-06-24T10:13:30.099Z,13.57
2018-06-24T10:15:58.841Z,12.47
2018-06-24T10:18:27.613Z,12.27
2018-06-24T10:20:56.071Z,13.03
2018-06-24T10:23:24.430Z,12.93
2018-06-24T10:25:52.760Z,12.23
2018-06-24T10:28:21.098Z,13.37
2018-06-24T10:30:49.741Z,13.60
2018-06-24T10:33:18.164Z,11.63
2018-06-24T10:35:46.635Z,13.13
2018-06-24T10:38:14.996Z,12.33
2018-06-24T10:40:43.384Z,12.57
2018-06-24T10:43:11.739Z,15.80
2018-06-24T10:45:40.094Z,15.03
2018-06-24T10:48:08.823Z,11.83
2018-06-24T10:50:37.397Z,12.10
2018-06-24T10:53:06.252Z,10.80
2018-06-24T10:55:34.798Z,12.70
2018-06-24T10:58:03.144Z,11.20
2018-06-24T11:00:31.519Z,11.17
2018-06-24T11:03:00.101Z,9.83
2018-06-24T11:05:28.464Z,11.57
2018-06-24T11:07:56.886Z,9.90
2018-06-24T11:10:25.306Z,10.37
2018-06-24T11:12:53.706Z,12.90
2018-06-24T11:15:22.104Z,13.33
2018-06-24T11:17:50.895Z,10.90
2018-06-24T11:20:20.132Z,10.27
2018-06-24T11:22:48.510Z,9.67
2018-06-24T11:25:16.995Z,8.30
2018-06-24T11:27:45.395Z,9.73
2018-06-24T11:30:13.936Z,8.60
2018-06-24T11:32:43.022Z,8.33
2018-06-24T11:35:11.453Z,8.37
2018-06-24T11:37:39.862Z,9.37
2018-06-24T11:40:08.263Z,23.30
2018-06-24T11:42:36.740Z,9.30
2018-06-24T11:45:05.406Z,8.13
2018-06-24T11:47:33.789Z,8.40
2018-06-24T11:50:02.300Z,8.73
2018-06-24T11:52:30.943Z,9.10
2018-06-24T11:55:00.458Z,8.83
2018-06-24T11:57:29.390Z,8.93
2018-06-24T11:59:57.899Z,7.63
2018-06-24T12:02:26.326Z,8.00
2018-06-24T12:04:54.956Z,7.53
2018-06-24T12:07:23.418Z,9.73
2018-06-24T12:09:52.132Z,10.87
2018-06-24T12:12:20.523Z,8.80
2018-06-24T12:14:48.891Z,8.13
2018-06-24T12:17:17.417Z,8.50
2018-06-24T12:19:45.871Z,7.27
2018-06-24T12:22:14.288Z,7.97
2018-06-24T12:24:42.749Z,6.60
2018-06-24T12:27:11.121Z,7.80
2018-06-24T12:29:39.758Z,7.60
2018-06-24T12:32:08.115Z,8.60
2018-06-24T12:34:36.516Z,8.10
2018-06-24T12:37:04.913Z,7.30
2018-06-24T12:39:33.470Z,7.53
2018-06-24T12:42:01.886Z,8.20
2018-06-24T12:44:30.257Z,7.23
2018-06-24T12:46:58.682Z,7.80
2018-06-24T12:49:27.055Z,7.33
2018-06-24T12:51:55.451Z,8.00
2018-06-24T12:54:23.812Z,8.33
2018-06-24T12:56:52.170Z,8.30
2018-06-24T12:59:20.836Z,7.73
2018-06-24T13:01:48.883Z,6.83
2018-06-24T13:04:17.506Z,7.80
2018-06-24T13:06:45.886Z,7.63
2018-06-24T13:09:14.279Z,7.20
2018-06-24T13:11:42.671Z,5.93
2018-06-24T13:14:11.037Z,6.37
2018-06-24T13:16:39.372Z,7.50
2018-06-24T13:19:07.788Z,6.57
2018-06-24T13:21:36.159Z,6.97
2018-06-24T13:24:04.667Z,5.90
2018-06-24T13:26:33.094Z,4.77
2018-06-24T13:29:01.469Z,5.10
2018-06-24T13:31:30.110Z,10.10
2018-06-24T13:33:58.471Z,12.27
2018-06-24T13:36:26.811Z,5.70
2018-06-24T13:38:55.312Z,7.70
2018-06-24T13:41:23.785Z,7.37
2018-06-24T13:43:53.208Z,6.43
2018-06-24T13:46:21.604Z,7.07
2018-06-24T13:48:49.942Z,7.10
2018-06-24T13:51:28.287Z,8.20
2018-06-24T13:53:56.662Z,6.70
2018-06-24T13:56:25.012Z,7.13
2018-06-24T13:58:53.386Z,7.10
2018-06-24T14:01:21.554Z,8.50
2018-06-24T14:03:49.986Z,7.50
2018-06-24T14:06:18.407Z,7.77
2018-06-24T14:08:47.366Z,7.93
2018-06-24T14:11:16.016Z,7.63
2018-06-24T14:13:45.456Z,7.10
2018-06-24T14:16:13.861Z,7.30
2018-06-24T14:18:42.440Z,7.60
2018-06-24T14:21:10.782Z,7.37
2018-06-24T14:23:39.130Z,17.40
2018-06-24T14:26:07.516Z,8.60
2018-06-24T14:28:35.855Z,7.50
2018-06-24T14:31:04.293Z,8.30
2018-06-24T14:33:32.664Z,7.27
2018-06-24T14:36:01.226Z,6.53
2018-06-24T14:38:29.626Z,7.10
2018-06-24T14:40:58.010Z,7.53
2018-06-24T14:43:26.418Z,8.47
2018-06-24T14:45:54.779Z,8.60
2018-06-24T14:48:23.293Z,8.03
2018-06-24T14:50:52.782Z,8.40
2018-06-24T14:53:21.246Z,8.50
2018-06-24T14:55:49.608Z,8.20
2018-06-24T14:58:18.019Z,8.47
2018-06-24T15:00:46.380Z,7.10
2018-06-24T15:03:14.775Z,7.80
2018-06-24T15:05:43.260Z,12.67
2018-06-24T15:08:11.650Z,12.50
2018-06-24T15:10:40.160Z,6.50
2018-06-24T15:13:08.581Z,8.70
2018-06-24T15:15:36.946Z,6.50
2018-06-24T15:18:15.372Z,6.67
2018-06-24T15:20:44.305Z,7.13
2018-06-24T15:23:12.912Z,6.90
2018-06-24T15:25:41.466Z,6.27
2018-06-24T15:28:09.866Z,6.60
2018-06-24T15:30:38.239Z,6.70
2018-06-24T15:33:06.754Z,5.97
2018-06-24T15:35:35.203Z,6.17
2018-06-24T15:38:03.631Z,6.10
2018-06-24T15:40:32.420Z,6.07
2018-06-24T15:43:00.833Z,5.30
2018-06-24T15:45:29.246Z,5.53
2018-06-24T15:47:57.757Z,5.80
2018-06-24T15:50:26.169Z,5.40
2018-06-24T15:52:54.560Z,5.50
2018-06-24T15:55:22.975Z,5.47
2018-06-24T15:57:51.362Z,5.60
2018-06-24T16:00:19.723Z,5.70
2018-06-24T16:02:48.071Z,5.30
2018-06-24T16:05:16.510Z,4.73
2018-06-24T16:07:44.891Z,5.07
2018-06-24T16:10:13.315Z,5.23
2018-06-24T16:12:41.693Z,5.10
2018-06-24T16:15:10.079Z,5.60
2018-06-24T16:17:38.481Z,4.90
2018-06-24T16:20:06.930Z,5.27
2018-06-24T16:22:35.282Z,5.00
2018-06-24T16:25:03.756Z,4.53
2018-06-24T16:27:32.158Z,4.30
2018-06-24T16:30:00.623Z,4.23
2018-06-24T16:32:29.006Z,3.97
2018-06-24T16:34:57.426Z,3.63
2018-06-24T16:37:26.030Z,3.83
2018-06-24T16:39:54.482Z,3.73
2018-06-24T16:42:22.925Z,3.67
2018-06-24T16:44:51.320Z,4.23
2018-06-24T16:47:19.684Z,3.50
2018-06-24T16:49:48.321Z,3.27
2018-06-24T16:52:16.724Z,3.20
2018-06-24T16:54:45.076Z,3.20
2018-06-24T16:57:13.479Z,3.37
2018-06-24T16:59:41.836Z,3.00
2018-06-24T17:02:10.392Z,3.23
2018-06-24T17:04:38.751Z,5.20
2018-06-24T17:07:07.146Z,2.67
2018-06-24T17:09:35.535Z,3.47
2018-06-24T17:12:03.980Z,3.13
2018-06-24T17:14:32.371Z,2.97
2018-06-24T17:17:00.795Z,2.87
2018-06-24T17:19:29.226Z,3.27
2018-06-24T17:21:57.670Z,2.93
2018-06-24T17:24:26.159Z,3.90
2018-06-24T17:26:54.572Z,3.60
2018-06-24T17:29:23.184Z,3.27
2018-06-24T17:31:51.551Z,3.53
2018-06-24T17:34:19.900Z,3.30
2018-06-24T17:36:48.444Z,3.30
2018-06-24T17:39:16.804Z,4.00
2018-06-24T17:41:46.369Z,3.30
2018-06-24T17:44:15.104Z,4.07
2018-06-24T17:46:43.458Z,3.57
2018-06-24T17:49:12.043Z,3.80
2018-06-24T17:51:40.460Z,4.47
2018-06-24T17:54:08.891Z,3.90
2018-06-24T17:56:37.479Z,4.63
2018-06-24T17:59:05.903Z,4.33
2018-06-24T18:01:34.260Z,4.50
2018-06-24T18:04:02.714Z,4.23
2018-06-24T18:06:31.287Z,4.30
2018-06-24T18:08:59.690Z,4.07
2018-06-24T18:11:28.100Z,4.03
2018-06-24T18:13:56.657Z,4.27
2018-06-24T18:16:25.047Z,4.17
2018-06-24T18:18:53.493Z,4.80
2018-06-24T18:21:21.906Z,4.57
2018-06-24T18:23:50.254Z,5.13
2018-06-24T18:26:18.610Z,4.67
2018-06-24T18:28:47.164Z,5.17
2018-06-24T18:31:15.556Z,4.13
2018-06-24T18:33:43.928Z,4.17
2018-06-24T18:36:12.352Z,5.03
2018-06-24T18:38:40.771Z,4.43
2018-06-24T18:41:09.136Z,4.80
2018-06-24T18:43:37.715Z,4.40
2018-06-24T18:46:06.345Z,4.57
2018-06-24T18:48:34.715Z,4.63
2018-06-24T18:51:03.168Z,4.43
2018-06-24T18:53:31.643Z,4.20
2018-06-24T18:56:00.088Z,3.67
2018-06-24T18:58:28.680Z,4.00
2018-06-24T19:00:57.081Z,3.60
2018-06-24T19:03:25.459Z,3.80
2018-06-24T19:05:54.022Z,3.60
2018-06-24T19:08:22.388Z,3.30
2018-06-24T19:10:50.751Z,3.10
2018-06-24T19:13:19.156Z,3.17
2018-06-24T19:15:47.524Z,2.80
2018-06-24T19:18:15.954Z,2.37
2018-06-24T19:20:44.315Z,2.30
2018-06-24T19:23:12.714Z,2.60
2018-06-24T19:25:41.267Z,2.63
2018-06-24T19:28:09.622Z,3.13
2018-06-24T19:30:38.039Z,2.97
2018-06-24T19:33:06.689Z,3.30
2018-06-24T19:35:35.116Z,2.93
2018-06-24T19:38:03.574Z,3.27
2018-06-24T19:40:32.072Z,3.63
2018-06-24T19:43:00.611Z,3.50
2018-06-24T19:45:29.895Z,3.37
2018-06-24T19:47:58.600Z,3.50
2018-06-24T19:50:27.388Z,3.07
2018-06-24T19:52:55.793Z,3.40
2018-06-24T19:55:24.215Z,3.00
2018-06-24T19:57:52.567Z,3.70
2018-06-24T20:00:21.127Z,3.43
2018-06-24T20:02:49.188Z,3.47
2018-06-24T20:05:17.536Z,3.00
2018-06-24T20:07:45.924Z,3.47
2018-06-24T20:10:14.251Z,3.00
2018-06-24T20:12:42.683Z,2.53
2018-06-24T20:15:11.048Z,3.10
2018-06-24T20:17:39.432Z,4.07
2018-06-24T20:20:07.979Z,3.10
2018-06-24T20:22:36.412Z,2.77
2018-06-24T20:25:04.947Z,2.90
2018-06-24T20:27:33.380Z,2.07
2018-06-24T20:30:01.928Z,2.77
2018-06-24T20:32:30.556Z,2.53
2018-06-24T20:34:59.017Z,2.63
2018-06-24T20:37:27.439Z,2.57
2018-06-24T20:39:56.012Z,2.13
2018-06-24T20:42:24.338Z,2.53
2018-06-24T20:44:52.663Z,2.37
2018-06-24T20:47:21.027Z,4.60
2018-06-24T20:49:49.383Z,12.07
2018-06-24T20:52:17.767Z,3.80
2018-06-24T20:54:46.087Z,3.10
2018-06-24T20:57:14.465Z,2.90
2018-06-24T20:59:42.994Z,2.67
2018-06-24T21:02:11.407Z,2.53
2018-06-24T21:04:39.751Z,2.57
2018-06-24T21:07:08.111Z,2.20
2018-06-24T21:09:36.469Z,2.50
2018-06-24T21:12:05.146Z,2.40
2018-06-24T21:14:33.530Z,2.63
2018-06-24T21:17:01.849Z,2.87
2018-06-24T21:19:30.223Z,2.97
2018-06-24T21:21:58.747Z,2.03
2018-06-24T21:24:35.437Z,2.20
2018-06-24T21:27:03.866Z,2.40
2018-06-24T21:29:32.196Z,2.97
2018-06-24T21:32:00.606Z,2.90
2018-06-24T21:34:29.008Z,2.60
2018-06-24T21:36:57.372Z,2.27
2018-06-24T21:39:26.235Z,2.40
2018-06-24T21:41:54.626Z,34.43
2018-06-24T21:44:22.957Z,8.40
2018-06-24T21:46:51.572Z,3.63
2018-06-24T21:49:20.116Z,2.90
2018-06-24T21:51:48.562Z,2.50
2018-06-24T21:54:17.228Z,2.20
2018-06-24T21:56:45.619Z,2.80
2018-06-24T21:59:13.979Z,2.77
2018-06-24T22:01:42.327Z,2.10
2018-06-24T22:04:10.721Z,1.77
2018-06-24T22:06:39.165Z,2.63
2018-06-24T22:09:09.857Z,2.13
2018-06-24T22:11:38.235Z,2.50
2018-06-24T22:14:06.755Z,2.00
2018-06-24T22:16:35.299Z,2.00
2018-06-24T22:19:03.699Z,2.00
2018-06-24T22:21:32.131Z,2.40
2018-06-24T22:24:00.683Z,2.70
2018-06-24T22:26:29.039Z,2.30
2018-06-24T22:28:57.399Z,2.43
2018-06-24T22:31:26.001Z,2.37
2018-06-24T22:33:54.478Z,1.97
2018-06-24T22:36:22.872Z,2.40
2018-06-24T22:38:51.419Z,2.20
2018-06-24T22:41:19.771Z,2.30
2018-06-24T22:43:48.170Z,2.30
2018-06-24T22:46:16.703Z,2.40
2018-06-24T22:48:45.069Z,2.63
2018-06-24T22:51:13.428Z,2.43
2018-06-24T22:53:41.949Z,2.80
2018-06-24T22:56:10.259Z,2.60
2018-06-24T22:58:38.604Z,2.47
2018-06-24T23:01:07.048Z,3.00
2018-06-24T23:03:35.391Z,3.13
2018-06-24T23:06:03.907Z,2.80
2018-06-24T23:08:32.244Z,2.97
2018-06-24T23:11:00.578Z,3.50
2018-06-24T23:13:28.963Z,3.13
2018-06-24T23:15:57.302Z,2.83
2018-06-24T23:18:25.659Z,3.37
2018-06-24T23:20:53.991Z,3.63
2018-06-24T23:23:22.313Z,3.20
2018-06-24T23:25:50.687Z,2.70
2018-06-24T23:28:19.035Z,2.40
2018-06-24T23:30:47.368Z,2.50
2018-06-24T23:33:15.716Z,3.20
2018-06-24T23:35:44.043Z,2.80
2018-06-24T23:38:12.542Z,2.60
2018-06-24T23:40:40.862Z,2.43
2018-06-24T23:43:09.189Z,2.70
2018-06-24T23:45:37.590Z,2.50
2018-06-24T23:48:06.085Z,2.67
2018-06-24T23:50:34.458Z,3.00
2018-06-24T23:53:02.787Z,3.40
2018-06-24T23:55:31.133Z,3.73
2018-06-24T23:57:59.502Z,2.80
